Time;durP1;ratioP1;P1;durP2;ratioP2;P2;SDS_P1;SDS_P2;PMS_P1;PMS_P2;Temp;Humidity;BMP_temperature;BMP_pressure;BME280_temperature;BME280_humidity;BME280_pressure;Samples;Min_cycle;Max_cycle;Signal;HPM_P1;HPM_P2
2022/11/23 00:01:25;;;;;;;3.37;2.10;;;;;;;;;;5139523;27;20438;-87
2022/11/23 00:03:52;;;;;;;2.90;2.20;;;;;;;;;;5136868;27;20422;-87
2022/11/23 00:06:20;;;;;;;4.55;2.05;;;;;;;;;;5132674;27;20386;-87
2022/11/23 00:08:46;;;;;;;2.30;2.07;;;;;;;;;;5135672;27;20410;-86
2022/11/23 00:11:13;;;;;;;3.85;2.13;;;;;;;;;;5134969;27;20881;-88
2022/11/23 00:13:39;;;;;;;4.15;2.15;;;;;;;;;;5134665;27;20841;-87
2022/11/23 00:16:09;;;;;;;3.55;2.30;;;;;;;;;;5116883;27;20428;-87
2022/11/23 00:18:36;;;;;;;3.38;2.10;;;;;;;;;;5133354;27;20366;-86
2022/11/23 00:21:09;;;;;;;3.38;2.08;;;;;;;;;;5132119;27;20465;-88
2022/11/23 00:23:35;;;;;;;2.55;1.77;;;;;;;;;;5134153;27;20421;-86
2022/11/23 00:26:03;;;;;;;2.40;1.75;;;;;;;;;;5134527;27;20427;-87
2022/11/23 00:28:30;;;;;;;3.33;1.95;;;;;;;;;;5134131;27;20447;-87
2022/11/23 00:30:56;;;;;;;4.20;2.10;;;;;;;;;;5134284;27;20405;-87
2022/11/23 00:33:22;;;;;;;3.60;2.38;;;;;;;;;;5134259;27;20399;-87
2022/11/23 00:35:48;;;;;;;3.08;2.08;;;;;;;;;;5116248;27;20371;-87
2022/11/23 00:38:14;;;;;;;4.30;3.20;;;;;;;;;;5134247;27;20797;-88
2022/11/23 00:40:40;;;;;;;4.57;3.03;;;;;;;;;;5134080;27;20798;-87
2022/11/23 00:43:06;;;;;;;4.30;3.10;;;;;;;;;;5134386;27;20442;-87
2022/11/23 00:45:32;;;;;;;3.45;2.97;;;;;;;;;;5115778;27;20391;-87
2022/11/23 00:47:58;;;;;;;4.68;3.20;;;;;;;;;;5134135;27;20359;-87
2022/11/23 00:50:24;;;;;;;4.43;3.20;;;;;;;;;;5115637;27;20382;-88
2022/11/23 00:52:50;;;;;;;3.80;3.20;;;;;;;;;;5133745;27;20414;-86
2022/11/23 00:55:16;;;;;;;4.03;3.27;;;;;;;;;;5106491;27;20885;-87
2022/11/23 00:57:42;;;;;;;4.15;2.83;;;;;;;;;;5115480;27;20382;-87
2022/11/23 01:00:08;;;;;;;3.67;3.38;;;;;;;;;;5114545;27;20386;-87
2022/11/23 01:02:35;;;;;;;4.75;3.25;;;;;;;;;;5133395;27;20374;-87
2022/11/23 01:05:01;;;;;;;3.92;2.85;;;;;;;;;;5133791;27;20842;-87
2022/11/23 01:07:29;;;;;;;3.72;3.38;;;;;;;;;;5133974;27;20375;-86
2022/11/23 01:09:55;;;;;;;4.97;3.67;;;;;;;;;;5133633;27;20378;-87
2022/11/23 01:12:21;;;;;;;4.40;3.37;;;;;;;;;;5119460;27;20515;-87
2022/11/23 01:14:47;;;;;;;4.97;3.90;;;;;;;;;;5127342;27;20412;-86
2022/11/23 01:17:13;;;;;;;5.35;4.43;;;;;;;;;;5113566;27;20871;-87
2022/11/23 01:19:39;;;;;;;7.13;5.68;;;;;;;;;;5112661;27;20363;-86
2022/11/23 01:22:05;;;;;;;7.60;5.65;;;;;;;;;;5133343;27;20462;-87
2022/11/23 01:24:31;;;;;;;7.70;6.90;;;;;;;;;;5133437;27;20847;-87
2022/11/23 01:26:57;;;;;;;5.93;5.32;;;;;;;;;;5133231;27;20427;-87
2022/11/23 01:29:23;;;;;;;6.63;5.72;;;;;;;;;;5115106;27;20382;-87
2022/11/23 01:31:49;;;;;;;4.25;3.20;;;;;;;;;;5133089;27;20379;-87
2022/11/23 01:34:15;;;;;;;5.18;4.65;;;;;;;;;;5133215;27;20375;-87
2022/11/23 01:36:42;;;;;;;3.97;3.63;;;;;;;;;;5133284;27;20366;-86
2022/11/23 01:39:08;;;;;;;4.75;4.00;;;;;;;;;;5114659;27;20886;-87
2022/11/23 01:41:36;;;;;;;3.53;3.17;;;;;;;;;;5132947;27;20449;-87
2022/11/23 01:44:20;;;;;;;5.63;3.30;;;;;;;;;;5133080;27;20863;-87
2022/11/23 01:46:46;;;;;;;3.20;2.90;;;;;;;;;;5132983;27;20394;-87
2022/11/23 01:49:13;;;;;;;3.50;3.20;;;;;;;;;;5133081;27;20382;-87
2022/11/23 01:51:40;;;;;;;3.20;2.90;;;;;;;;;;5133013;27;20847;-87
2022/11/23 01:54:10;;;;;;;3.55;2.70;;;;;;;;;;5123975;27;20404;-87
2022/11/23 01:56:38;;;;;;;4.88;2.92;;;;;;;;;;5114639;28;20860;-87
2022/11/23 01:59:08;;;;;;;3.70;3.00;;;;;;;;;;5114553;28;20385;-87
2022/11/23 02:01:36;;;;;;;3.53;2.60;;;;;;;;;;5114432;28;20736;-87
2022/11/23 02:04:06;;;;;;;3.75;3.05;;;;;;;;;;5114503;28;20379;-86
2022/11/23 02:06:33;;;;;;;4.43;4.03;;;;;;;;;;5132774;27;20432;-87
2022/11/23 02:08:59;;;;;;;3.85;2.70;;;;;;;;;;5130506;27;20383;-87
2022/11/23 02:11:25;;;;;;;4.05;2.50;;;;;;;;;;5133838;27;20379;-87
2022/11/23 02:13:51;;;;;;;4.35;2.80;;;;;;;;;;5136742;27;20413;-87
2022/11/23 02:16:18;;;;;;;6.55;3.80;;;;;;;;;;5136908;27;20370;-88
2022/11/23 02:18:45;;;;;;;3.75;3.10;;;;;;;;;;5136778;27;20409;-88
2022/11/23 02:21:11;;;;;;;4.07;3.33;;;;;;;;;;5136540;27;20490;-88
2022/11/23 02:23:58;;;;;;;3.47;3.15;;;;;;;;;;5136838;27;20465;-87
2022/11/23 02:26:26;;;;;;;3.65;2.90;;;;;;;;;;5117220;27;20457;-87
2022/11/23 02:29:03;;;;;;;5.55;3.53;;;;;;;;;;5134400;27;20455;-87
2022/11/23 02:31:29;;;;;;;5.85;3.40;;;;;;;;;;5133483;27;20411;-87
2022/11/23 02:33:55;;;;;;;5.07;3.00;;;;;;;;;;5113622;27;20419;-87
2022/11/23 02:36:21;;;;;;;4.70;3.00;;;;;;;;;;5125536;27;20381;-86
2022/11/23 02:38:47;;;;;;;4.60;3.22;;;;;;;;;;5134527;27;20375;-87
2022/11/23 02:41:13;;;;;;;3.42;2.95;;;;;;;;;;5135881;27;20417;-87
2022/11/23 02:43:39;;;;;;;3.63;3.00;;;;;;;;;;5136137;27;20402;-88
2022/11/23 02:46:06;;;;;;;4.97;3.65;;;;;;;;;;5136167;27;20398;-88
2022/11/23 02:48:32;;;;;;;5.75;3.47;;;;;;;;;;5135631;27;20894;-87
2022/11/23 02:50:58;;;;;;;5.28;3.70;;;;;;;;;;5135673;27;21092;-87
2022/11/23 02:53:24;;;;;;;4.20;2.97;;;;;;;;;;5132673;27;20404;-87
2022/11/23 02:55:50;;;;;;;3.70;2.90;;;;;;;;;;5130877;27;20367;-88
2022/11/23 02:58:16;;;;;;;3.03;2.55;;;;;;;;;;5117417;27;20420;-88
2022/11/23 03:00:42;;;;;;;3.28;2.40;;;;;;;;;;5117448;27;20872;-87
2022/11/23 03:03:08;;;;;;;2.97;2.60;;;;;;;;;;5120559;27;20382;-86
2022/11/23 03:05:34;;;;;;;2.85;2.38;;;;;;;;;;5136208;27;20449;-86
2022/11/23 03:08:00;;;;;;;2.97;2.60;;;;;;;;;;5117809;27;20461;-87
2022/11/23 03:10:26;;;;;;;2.67;2.30;;;;;;;;;;5141175;27;20873;-87
2022/11/23 03:12:56;;;;;;;3.50;2.50;;;;;;;;;;5133468;27;20412;-87
2022/11/23 03:15:22;;;;;;;4.07;2.60;;;;;;;;;;5115426;27;20455;-86
2022/11/23 03:17:48;;;;;;;4.50;3.00;;;;;;;;;;5143980;27;20370;-87
2022/11/23 03:20:15;;;;;;;3.20;2.70;;;;;;;;;;5137140;27;20389;-86
2022/11/23 03:22:41;;;;;;;3.28;2.97;;;;;;;;;;5143635;27;20876;-87
2022/11/23 03:25:07;;;;;;;3.58;2.70;;;;;;;;;;5135240;27;20376;-86
2022/11/23 03:27:33;;;;;;;3.17;2.53;;;;;;;;;;5141982;27;20457;-86
2022/11/23 03:30:00;;;;;;;2.80;2.33;;;;;;;;;;5144696;27;20456;-87
2022/11/23 03:32:28;;;;;;;2.33;2.13;;;;;;;;;;5139155;27;20413;-87
2022/11/23 03:34:54;;;;;;;3.90;2.38;;;;;;;;;;5137739;27;20401;-86
2022/11/23 03:37:20;;;;;;;3.30;2.03;;;;;;;;;;5136760;27;20371;-87
2022/11/23 03:39:46;;;;;;;2.58;2.22;;;;;;;;;;5136244;27;20370;-87
2022/11/23 03:42:12;;;;;;;4.60;1.93;;;;;;;;;;5116753;27;20389;-86
2022/11/23 03:44:38;;;;;;;2.95;2.20;;;;;;;;;;5135774;27;20882;-87
2022/11/23 03:47:04;;;;;;;3.00;1.90;;;;;;;;;;5135639;27;20383;-88
2022/11/23 03:49:30;;;;;;;2.58;2.05;;;;;;;;;;5135433;27;20903;-87
2022/11/23 03:51:56;;;;;;;2.30;2.00;;;;;;;;;;5134664;27;20390;-87
2022/11/23 03:54:22;;;;;;;3.00;1.70;;;;;;;;;;5126047;27;20379;-87
2022/11/23 03:56:48;;;;;;;3.65;2.10;;;;;;;;;;5134368;27;20727;-87
2022/11/23 03:59:14;;;;;;;1.90;1.80;;;;;;;;;;5134982;27;20375;-87
2022/11/23 04:01:40;;;;;;;2.28;2.00;;;;;;;;;;5135132;27;20855;-87
2022/11/23 04:04:06;;;;;;;2.55;1.90;;;;;;;;;;5135225;27;20383;-88
2022/11/23 04:06:32;;;;;;;2.17;1.90;;;;;;;;;;5135157;27;20367;-87
2022/11/23 04:08:58;;;;;;;3.10;2.10;;;;;;;;;;5135125;27;20371;-87
2022/11/23 04:11:24;;;;;;;2.53;2.13;;;;;;;;;;5134750;27;20778;-87
2022/11/23 04:13:50;;;;;;;2.08;1.88;;;;;;;;;;5130207;27;20408;-87
2022/11/23 04:16:16;;;;;;;2.42;1.80;;;;;;;;;;5134435;27;20378;-87
2022/11/23 04:18:42;;;;;;;2.20;1.80;;;;;;;;;;5134671;27;20414;-87
2022/11/23 04:21:08;;;;;;;2.53;1.90;;;;;;;;;;5133558;27;20788;-88
2022/11/23 04:23:34;;;;;;;2.60;2.00;;;;;;;;;;5134478;27;20385;-88
2022/11/23 04:26:00;;;;;;;2.13;1.80;;;;;;;;;;5134627;27;20480;-86
2022/11/23 04:28:26;;;;;;;2.53;1.90;;;;;;;;;;5134464;27;20386;-87
2022/11/23 04:30:52;;;;;;;2.58;1.95;;;;;;;;;;5134229;27;20797;-86
2022/11/23 04:33:18;;;;;;;1.75;1.65;;;;;;;;;;5134283;27;20413;-87
2022/11/23 04:35:44;;;;;;;4.55;2.55;;;;;;;;;;5114780;27;20382;-88
2022/11/23 04:38:10;;;;;;;1.83;1.63;;;;;;;;;;5116025;27;20412;-88
2022/11/23 04:40:37;;;;;;;2.03;1.83;;;;;;;;;;5115103;27;20431;-87
2022/11/23 04:43:03;;;;;;;2.15;1.70;;;;;;;;;;5134099;27;20378;-87
2022/11/23 04:45:29;;;;;;;2.65;1.85;;;;;;;;;;5133764;27;20442;-87
2022/11/23 04:47:55;;;;;;;2.55;1.92;;;;;;;;;;5115580;27;20924;-87
2022/11/23 04:50:21;;;;;;;3.38;2.38;;;;;;;;;;5134143;27;20473;-88
2022/11/23 04:52:47;;;;;;;3.50;2.63;;;;;;;;;;5128075;27;20906;-86
2022/11/23 04:55:13;;;;;;;3.42;2.55;;;;;;;;;;5114093;27;20371;-88
2022/11/23 04:57:39;;;;;;;2.90;2.10;;;;;;;;;;5110350;27;20377;-87
2022/11/23 05:00:05;;;;;;;4.23;1.97;;;;;;;;;;5133712;27;20505;-88
2022/11/23 05:02:31;;;;;;;3.17;1.70;;;;;;;;;;5132560;27;20393;-86
2022/11/23 05:04:57;;;;;;;2.67;1.88;;;;;;;;;;5114399;27;20387;-88
2022/11/23 05:07:23;;;;;;;2.40;2.03;;;;;;;;;;5105913;27;20379;-88
2022/11/23 05:09:49;;;;;;;2.63;1.80;;;;;;;;;;5117791;27;20374;-88
2022/11/23 05:12:15;;;;;;;2.40;1.83;;;;;;;;;;5100401;27;20493;-87
2022/11/23 05:14:42;;;;;;;2.57;2.00;;;;;;;;;;5133472;27;20370;-87
2022/11/23 05:17:08;;;;;;;3.07;2.00;;;;;;;;;;5116495;27;20376;-86
2022/11/23 05:19:34;;;;;;;2.50;1.88;;;;;;;;;;5114786;27;20380;-86
2022/11/23 05:21:59;;;;;;;2.50;1.83;;;;;;;;;;5129123;27;20376;-86
2022/11/23 05:24:25;;;;;;;2.47;1.60;;;;;;;;;;5123087;27;20374;-87
2022/11/23 05:26:52;;;;;;;4.78;4.22;;;;;;;;;;5129523;27;20378;-86
2022/11/23 05:29:17;;;;;;;5.85;4.88;;;;;;;;;;5131086;27;20367;-85
2022/11/23 05:31:43;;;;;;;4.72;3.70;;;;;;;;;;5131085;27;20377;-86
2022/11/23 05:34:09;;;;;;;4.37;2.40;;;;;;;;;;5131072;27;20805;-85
2022/11/23 05:36:35;;;;;;;2.80;2.08;;;;;;;;;;5131249;27;20454;-86
2022/11/23 05:39:01;;;;;;;3.03;2.03;;;;;;;;;;5131152;27;20977;-86
2022/11/23 05:41:27;;;;;;;2.58;1.90;;;;;;;;;;5133036;27;20371;-86
2022/11/23 05:43:53;;;;;;;2.92;2.00;;;;;;;;;;5133149;27;20413;-86
2022/11/23 05:46:19;;;;;;;2.60;1.90;;;;;;;;;;5132553;27;20390;-86
2022/11/23 05:48:45;;;;;;;2.97;1.95;;;;;;;;;;5133184;27;20413;-87
2022/11/23 05:51:11;;;;;;;2.20;1.80;;;;;;;;;;5114927;28;20414;-87
2022/11/23 05:53:37;;;;;;;3.78;1.92;;;;;;;;;;5127488;27;20411;-86
2022/11/23 05:56:03;;;;;;;3.10;2.00;;;;;;;;;;5129497;27;20367;-85
2022/11/23 05:58:29;;;;;;;3.10;1.98;;;;;;;;;;5132807;27;20366;-86
2022/11/23 06:00:59;;;;;;;2.42;1.90;;;;;;;;;;5114250;27;20405;-87
2022/11/23 06:03:25;;;;;;;3.13;1.80;;;;;;;;;;5133351;27;20469;-85
2022/11/23 06:05:51;;;;;;;2.67;2.03;;;;;;;;;;5103937;28;20372;-87
2022/11/23 06:08:17;;;;;;;2.78;1.90;;;;;;;;;;5132183;27;20894;-86
2022/11/23 06:10:43;;;;;;;2.47;1.95;;;;;;;;;;5132447;27;20395;-86
2022/11/23 06:13:18;;;;;;;2.92;1.90;;;;;;;;;;5123360;27;20495;-87
2022/11/23 06:15:44;;;;;;;2.35;2.13;;;;;;;;;;5118985;27;20366;-87
2022/11/23 06:18:10;;;;;;;3.33;2.28;;;;;;;;;;5132833;27;20390;-87
2022/11/23 06:20:36;;;;;;;2.92;2.00;;;;;;;;;;5111071;28;20375;-86
2022/11/23 06:23:02;;;;;;;3.88;2.33;;;;;;;;;;5132730;27;20374;-86
2022/11/23 06:25:28;;;;;;;2.50;1.98;;;;;;;;;;5132151;27;20467;-86
2022/11/23 06:27:55;;;;;;;2.80;2.20;;;;;;;;;;5132668;27;20462;-86
2022/11/23 06:30:21;;;;;;;5.40;4.90;;;;;;;;;;5114943;27;20380;-86
2022/11/23 06:32:47;;;;;;;5.97;5.10;;;;;;;;;;5096280;28;20401;-87
2022/11/23 06:35:13;;;;;;;3.95;3.33;;;;;;;;;;5118399;27;20445;-88
2022/11/23 06:37:39;;;;;;;3.40;3.10;;;;;;;;;;5131808;27;20459;-87
2022/11/23 06:40:05;;;;;;;3.40;3.10;;;;;;;;;;5132603;27;20855;-84
2022/11/23 06:42:31;;;;;;;3.75;3.35;;;;;;;;;;5132645;27;20461;-84
2022/11/23 06:44:58;;;;;;;3.75;3.33;;;;;;;;;;5132639;27;20408;-84
2022/11/23 06:47:24;;;;;;;3.93;3.63;;;;;;;;;;5132340;27;20394;-84
2022/11/23 06:49:50;;;;;;;3.83;3.30;;;;;;;;;;5134936;27;20473;-84
2022/11/23 06:52:16;;;;;;;6.17;2.93;;;;;;;;;;5125744;27;20556;-84
2022/11/23 06:54:42;;;;;;;4.28;3.08;;;;;;;;;;5106645;28;20470;-86
2022/11/23 06:57:08;;;;;;;3.45;2.85;;;;;;;;;;5127829;27;20378;-84
2022/11/23 06:59:34;;;;;;;4.35;2.90;;;;;;;;;;5129687;27;20386;-83
2022/11/23 07:02:00;;;;;;;4.03;3.20;;;;;;;;;;5135006;27;20396;-85
2022/11/23 07:04:26;;;;;;;4.32;2.95;;;;;;;;;;5109231;27;20380;-84
2022/11/23 07:06:52;;;;;;;4.22;3.20;;;;;;;;;;5126595;27;20450;-84
2022/11/23 07:09:18;;;;;;;3.90;3.08;;;;;;;;;;5136492;27;20454;-85
2022/11/23 07:11:44;;;;;;;3.72;3.00;;;;;;;;;;5131558;27;20380;-85
2022/11/23 07:14:10;;;;;;;3.65;2.40;;;;;;;;;;5135838;27;20391;-85
2022/11/23 07:16:36;;;;;;;3.60;2.83;;;;;;;;;;5131738;27;20387;-84
2022/11/23 07:19:02;;;;;;;3.15;2.20;;;;;;;;;;5129236;27;20430;-84
2022/11/23 07:21:28;;;;;;;3.05;2.15;;;;;;;;;;5127658;27;20410;-84
2022/11/23 07:23:54;;;;;;;3.00;2.35;;;;;;;;;;5117406;27;20889;-84
2022/11/23 07:26:20;;;;;;;5.05;2.97;;;;;;;;;;5117559;27;20371;-83
2022/11/23 07:28:46;;;;;;;3.42;3.13;;;;;;;;;;5117533;27;20383;-84
2022/11/23 07:31:14;;;;;;;3.40;2.60;;;;;;;;;;5135209;27;20374;-84
2022/11/23 07:33:43;;;;;;;5.00;3.75;;;;;;;;;;5117396;27;20992;-83
2022/11/23 07:36:09;;;;;;;5.30;3.60;;;;;;;;;;5135509;27;20383;-84
2022/11/23 07:38:35;;;;;;;6.20;4.35;;;;;;;;;;5117069;27;20901;-84
2022/11/23 07:41:02;;;;;;;3.70;3.25;;;;;;;;;;5135347;27;20403;-83
2022/11/23 07:43:28;;;;;;;5.90;3.88;;;;;;;;;;5116964;27;20385;-84
2022/11/23 07:45:55;;;;;;;3.65;3.35;;;;;;;;;;5134886;27;20391;-84
2022/11/23 07:48:21;;;;;;;5.03;3.75;;;;;;;;;;5135373;27;20427;-84
2022/11/23 07:50:47;;;;;;;4.18;3.78;;;;;;;;;;5134856;27;20386;-84
2022/11/23 07:53:13;;;;;;;4.07;3.13;;;;;;;;;;5133068;27;20482;-85
2022/11/23 07:55:39;;;;;;;5.20;3.60;;;;;;;;;;5128418;27;20405;-84
2022/11/23 07:58:05;;;;;;;4.72;3.60;;;;;;;;;;5134973;27;20396;-85
2022/11/23 08:00:31;;;;;;;4.55;3.45;;;;;;;;;;5134747;27;20367;-84
2022/11/23 08:02:58;;;;;;;4.72;3.55;;;;;;;;;;5135244;27;20507;-85
2022/11/23 08:05:25;;;;;;;5.32;3.88;;;;;;;;;;5135133;27;20390;-84
2022/11/23 08:07:51;;;;;;;3.90;3.53;;;;;;;;;;5134040;27;20378;-84
2022/11/23 08:10:17;;;;;;;6.60;4.47;;;;;;;;;;5134600;27;20452;-85
2022/11/23 08:12:43;;;;;;;6.47;5.73;;;;;;;;;;5134692;27;20402;-85
2022/11/23 08:15:09;;;;;;;7.47;6.57;;;;;;;;;;5131555;27;20387;-85
2022/11/23 08:17:35;;;;;;;6.73;6.03;;;;;;;;;;5134568;27;20417;-85
2022/11/23 08:20:01;;;;;;;6.20;5.55;;;;;;;;;;5126808;27;20392;-85
2022/11/23 08:22:27;;;;;;;7.47;5.73;;;;;;;;;;5134193;27;20367;-85
2022/11/23 08:24:53;;;;;;;7.50;5.45;;;;;;;;;;5133924;27;20886;-85
2022/11/23 08:27:19;;;;;;;7.45;5.80;;;;;;;;;;5134260;27;20381;-85
2022/11/23 08:29:45;;;;;;;8.60;5.85;;;;;;;;;;5134370;27;20370;-85
2022/11/23 08:32:12;;;;;;;6.07;5.25;;;;;;;;;;5134309;27;20378;-85
2022/11/23 08:34:38;;;;;;;7.40;5.60;;;;;;;;;;5134297;27;20386;-85
2022/11/23 08:37:03;;;;;;;6.57;5.35;;;;;;;;;;5134171;27;20375;-85
2022/11/23 08:39:29;;;;;;;8.07;5.65;;;;;;;;;;5116049;27;20755;-85
2022/11/23 08:41:55;;;;;;;6.47;5.33;;;;;;;;;;5134123;27;20550;-85
2022/11/23 08:44:21;;;;;;;6.03;5.43;;;;;;;;;;5133921;27;20393;-85
2022/11/23 08:46:47;;;;;;;6.35;5.55;;;;;;;;;;5133941;27;20903;-85
2022/11/23 08:49:13;;;;;;;7.80;6.00;;;;;;;;;;5134026;27;20394;-85
2022/11/23 08:51:39;;;;;;;9.38;6.63;;;;;;;;;;5134083;27;20379;-85
2022/11/23 08:54:05;;;;;;;11.32;7.60;;;;;;;;;;5124741;27;20479;-85
2022/11/23 08:56:31;;;;;;;9.10;8.00;;;;;;;;;;5136573;27;20907;-85
2022/11/23 08:58:57;;;;;;;8.75;7.93;;;;;;;;;;5115327;27;20378;-85
2022/11/23 09:01:23;;;;;;;9.68;7.68;;;;;;;;;;5114613;27;20375;-85
2022/11/23 09:03:49;;;;;;;10.95;8.25;;;;;;;;;;5133193;27;20414;-85
2022/11/23 09:06:15;;;;;;;7.78;6.97;;;;;;;;;;5133658;27;20382;-85
2022/11/23 09:08:41;;;;;;;9.93;7.55;;;;;;;;;;5122939;27;20373;-85
2022/11/23 09:11:09;;;;;;;8.65;7.22;;;;;;;;;;5124008;27;20409;-85
2022/11/23 09:13:36;;;;;;;8.73;7.82;;;;;;;;;;5133141;27;20800;-86
2022/11/23 09:16:03;;;;;;;9.90;6.97;;;;;;;;;;5133314;27;20439;-85
2022/11/23 09:18:29;;;;;;;9.68;7.72;;;;;;;;;;5133705;27;20411;-85
2022/11/23 09:20:55;;;;;;;9.40;8.15;;;;;;;;;;5132681;27;20371;-85
2022/11/23 09:23:22;;;;;;;10.93;9.20;;;;;;;;;;5115000;27;20386;-85
2022/11/23 09:25:49;;;;;;;12.37;8.60;;;;;;;;;;5130017;27;20457;-85
2022/11/23 09:28:15;;;;;;;12.35;9.20;;;;;;;;;;5133481;27;20378;-85
2022/11/23 09:30:42;;;;;;;9.55;8.23;;;;;;;;;;5114744;27;20378;-85
2022/11/23 09:33:08;;;;;;;9.77;8.80;;;;;;;;;;5114887;27;20398;-85
2022/11/23 09:35:34;;;;;;;10.57;8.25;;;;;;;;;;5133339;27;20371;-85
2022/11/23 09:38:00;;;;;;;11.02;7.97;;;;;;;;;;5133432;27;20367;-85
2022/11/23 09:40:30;;;;;;;9.23;7.75;;;;;;;;;;5114903;27;20381;-85
2022/11/23 09:43:14;;;;;;;9.10;7.80;;;;;;;;;;5133227;27;20379;-85
2022/11/23 09:45:48;;;;;;;10.37;7.87;;;;;;;;;;5133000;27;20441;-85
2022/11/23 09:48:44;;;;;;;10.73;8.32;;;;;;;;;;5133107;27;20921;-86
2022/11/23 09:51:17;;;;;;;12.70;8.80;;;;;;;;;;5111693;27;20395;-85
2022/11/23 09:53:46;;;;;;;9.48;8.32;;;;;;;;;;5126762;27;20990;-85
2022/11/23 09:56:20;;;;;;;11.82;9.30;;;;;;;;;;5130879;27;20996;-85
2022/11/23 09:58:49;;;;;;;12.80;8.95;;;;;;;;;;5123717;27;20461;-85
2022/11/23 10:01:15;;;;;;;11.30;7.95;;;;;;;;;;5132756;27;20367;-86
2022/11/23 10:03:42;;;;;;;11.37;8.00;;;;;;;;;;5114940;28;20474;-85
2022/11/23 10:06:19;;;;;;;9.88;7.00;;;;;;;;;;5129608;27;20371;-86
2022/11/23 10:08:51;;;;;;;11.70;7.15;;;;;;;;;;5142159;27;20820;-85
2022/11/23 10:11:49;;;;;;;9.65;6.65;;;;;;;;;;5124913;27;20381;-85
2022/11/23 10:14:22;;;;;;;5.30;4.20;;;;;;;;;;5076008;27;20819;-85
2022/11/23 10:16:53;;;;;;;6.85;3.92;;;;;;;;;;5132710;27;20379;-85
2022/11/23 10:19:38;;;;;;;6.03;4.35;;;;;;;;;;5141476;27;20916;-85
2022/11/23 10:22:05;;;;;;;4.43;3.45;;;;;;;;;;5136981;27;20389;-86
2022/11/23 10:24:34;;;;;;;4.05;2.60;;;;;;;;;;5139569;27;20442;-86
2022/11/23 10:27:02;;;;;;;3.22;2.60;;;;;;;;;;5140598;27;20375;-85
2022/11/23 10:29:29;;;;;;;4.40;3.22;;;;;;;;;;5139583;27;20708;-84
2022/11/23 10:31:56;;;;;;;5.90;3.50;;;;;;;;;;5119192;27;20816;-84
2022/11/23 10:34:43;;;;;;;4.30;2.80;;;;;;;;;;5138721;27;20402;-85
2022/11/23 10:37:11;;;;;;;4.50;2.92;;;;;;;;;;5119956;27;20867;-85
2022/11/23 10:39:37;;;;;;;4.32;3.10;;;;;;;;;;5138620;27;20390;-84
2022/11/23 10:42:09;;;;;;;4.32;2.72;;;;;;;;;;5137481;27;20454;-85
2022/11/23 10:44:37;;;;;;;5.37;3.40;;;;;;;;;;5137671;27;20558;-86
2022/11/23 10:47:03;;;;;;;3.58;2.63;;;;;;;;;;5136674;27;20772;-85
2022/11/23 10:49:31;;;;;;;4.00;2.90;;;;;;;;;;5136913;27;20375;-86
2022/11/23 10:51:57;;;;;;;5.00;2.75;;;;;;;;;;5136704;27;20375;-85
2022/11/23 10:54:28;;;;;;;5.75;2.83;;;;;;;;;;5132299;27;20404;-85
2022/11/23 10:56:55;;;;;;;4.35;3.05;;;;;;;;;;5136681;27;20379;-85
2022/11/23 10:59:30;;;;;;;5.22;3.60;;;;;;;;;;5136414;27;20427;-85
2022/11/23 11:02:13;;;;;;;4.47;3.20;;;;;;;;;;5136148;27;20411;-85
2022/11/23 11:04:39;;;;;;;5.20;3.20;;;;;;;;;;5118656;27;20396;-84
2022/11/23 11:07:27;;;;;;;4.25;2.83;;;;;;;;;;5138115;27;20379;-85
2022/11/23 11:09:56;;;;;;;6.88;3.92;;;;;;;;;;5117655;27;20401;-85
2022/11/23 11:12:22;;;;;;;5.82;3.17;;;;;;;;;;5136009;27;20374;-86
2022/11/23 11:15:01;;;;;;;5.75;2.60;;;;;;;;;;5136069;27;20371;-86
2022/11/23 11:17:32;;;;;;;4.00;2.58;;;;;;;;;;5136118;27;20417;-85
2022/11/23 11:19:58;;;;;;;4.25;2.88;;;;;;;;;;5117461;27;20359;-85
2022/11/23 11:22:32;;;;;;;3.42;2.40;;;;;;;;;;5133169;27;20424;-85
2022/11/23 11:24:58;;;;;;;3.30;2.38;;;;;;;;;;5136102;27;20370;-85
2022/11/23 11:27:26;;;;;;;3.65;2.65;;;;;;;;;;5135805;27;20375;-86
2022/11/23 11:29:54;;;;;;;4.20;2.88;;;;;;;;;;5135594;27;20390;-86
2022/11/23 11:32:39;;;;;;;4.22;2.60;;;;;;;;;;5135575;27;20461;-85
2022/11/23 11:35:25;;;;;;;4.80;2.30;;;;;;;;;;5135635;27;20375;-86
2022/11/23 11:37:52;;;;;;;3.20;1.90;;;;;;;;;;5135650;27;20902;-85
2022/11/23 11:40:35;;;;;;;2.70;1.77;;;;;;;;;;5135502;27;20375;-85
2022/11/23 11:43:16;;;;;;;3.53;2.38;;;;;;;;;;5135391;27;20379;-85
2022/11/23 11:45:46;;;;;;;3.17;2.20;;;;;;;;;;5134465;27;20940;-86
2022/11/23 11:48:15;;;;;;;3.25;2.42;;;;;;;;;;5117055;27;20875;-86
2022/11/23 11:50:45;;;;;;;4.00;2.70;;;;;;;;;;5135193;27;20386;-85
2022/11/23 11:53:14;;;;;;;3.92;2.67;;;;;;;;;;5133698;27;20454;-85
2022/11/23 11:55:49;;;;;;;3.30;2.38;;;;;;;;;;5128375;27;20407;-85
2022/11/23 11:58:17;;;;;;;3.80;2.40;;;;;;;;;;5116979;27;20374;-85
2022/11/23 12:00:43;;;;;;;4.47;2.35;;;;;;;;;;5135019;27;20916;-85
2022/11/23 12:03:19;;;;;;;5.30;2.90;;;;;;;;;;5135075;27;20486;-85
2022/11/23 12:05:53;;;;;;;4.60;2.38;;;;;;;;;;5131768;27;20378;-85
2022/11/23 12:08:25;;;;;;;3.00;1.70;;;;;;;;;;5134863;27;20416;-85
2022/11/23 12:10:57;;;;;;;3.03;1.92;;;;;;;;;;5134789;27;20371;-85
2022/11/23 12:13:29;;;;;;;2.87;2.07;;;;;;;;;;5134761;27;20471;-85
2022/11/23 12:16:18;;;;;;;4.63;2.17;;;;;;;;;;5135141;27;20398;-85
2022/11/23 12:19:03;;;;;;;5.60;2.40;;;;;;;;;;5103434;27;20414;-85
2022/11/23 12:21:49;;;;;;;3.80;1.85;;;;;;;;;;5134632;27;20450;-86
2022/11/23 12:24:33;;;;;;;3.73;2.13;;;;;;;;;;5117242;27;20461;-85
2022/11/23 12:27:18;;;;;;;2.72;2.10;;;;;;;;;;5134403;27;20851;-85
2022/11/23 12:29:44;;;;;;;2.87;2.00;;;;;;;;;;5134573;27;20399;-86
2022/11/23 12:32:25;;;;;;;3.03;2.03;;;;;;;;;;5134122;27;20460;-85
2022/11/23 12:35:10;;;;;;;3.28;1.92;;;;;;;;;;5134643;27;20454;-85
2022/11/23 12:37:46;;;;;;;2.47;1.63;;;;;;;;;;5134336;27;20769;-86
2022/11/23 12:40:24;;;;;;;4.07;1.88;;;;;;;;;;5134216;27;20378;-85
2022/11/23 12:42:51;;;;;;;3.38;2.00;;;;;;;;;;5134171;27;20898;-85
2022/11/23 12:45:40;;;;;;;3.03;1.80;;;;;;;;;;5134044;27;20382;-85
2022/11/23 12:48:17;;;;;;;3.88;2.00;;;;;;;;;;5136507;27;20399;-85
2022/11/23 12:50:43;;;;;;;2.95;1.90;;;;;;;;;;5134044;27;20370;-86
2022/11/23 12:53:09;;;;;;;2.58;1.85;;;;;;;;;;5132657;27;20458;-85
2022/11/23 12:55:44;;;;;;;4.78;1.95;;;;;;;;;;5128314;27;20370;-86
2022/11/23 12:58:23;;;;;;;2.87;1.80;;;;;;;;;;5133835;27;20937;-85
2022/11/23 13:01:00;;;;;;;2.60;1.67;;;;;;;;;;5133733;27;20375;-85
2022/11/23 13:03:32;;;;;;;4.32;2.05;;;;;;;;;;5133943;27;20870;-85
2022/11/23 13:06:17;;;;;;;4.55;1.80;;;;;;;;;;5133915;27;20378;-85
2022/11/23 13:08:58;;;;;;;2.70;1.80;;;;;;;;;;5115568;27;20409;-85
2022/11/23 13:11:43;;;;;;;3.00;1.75;;;;;;;;;;5133869;27;20383;-85
2022/11/23 13:14:28;;;;;;;4.63;2.40;;;;;;;;;;5115184;27;20436;-85
2022/11/23 13:17:00;;;;;;;3.10;1.90;;;;;;;;;;5133584;27;20453;-85
2022/11/23 13:19:41;;;;;;;4.30;2.40;;;;;;;;;;5133521;27;20855;-85
2022/11/23 13:22:11;;;;;;;4.25;2.10;;;;;;;;;;5133326;27;20370;-85
2022/11/23 13:24:39;;;;;;;4.72;2.00;;;;;;;;;;5133482;27;20729;-85
2022/11/23 13:27:14;;;;;;;3.72;2.08;;;;;;;;;;5133388;27;20379;-86
2022/11/23 13:29:57;;;;;;;4.78;1.90;;;;;;;;;;5115111;27;20713;-86
2022/11/23 13:32:38;;;;;;;3.42;2.10;;;;;;;;;;5121893;27;20427;-85
2022/11/23 13:35:23;;;;;;;3.95;2.25;;;;;;;;;;5133422;27;20411;-85
2022/11/23 13:38:00;;;;;;;3.27;2.07;;;;;;;;;;5133261;27;20370;-85
2022/11/23 13:40:31;;;;;;;5.60;2.03;;;;;;;;;;5133182;27;20379;-86
2022/11/23 13:42:59;;;;;;;3.15;1.73;;;;;;;;;;5133301;27;20373;-85
2022/11/23 13:45:25;;;;;;;3.45;1.80;;;;;;;;;;5132929;27;20379;-86
2022/11/23 13:48:12;;;;;;;3.20;1.90;;;;;;;;;;5133191;27;20378;-85
2022/11/23 13:50:56;;;;;;;3.78;2.20;;;;;;;;;;5133481;27;20859;-84
2022/11/23 13:53:21;;;;;;;3.42;2.25;;;;;;;;;;5130455;27;20399;-84
2022/11/23 13:55:48;;;;;;;2.65;1.92;;;;;;;;;;5132574;27;20400;-85
2022/11/23 13:58:23;;;;;;;3.72;2.28;;;;;;;;;;5136976;27;20379;-84
2022/11/23 14:00:50;;;;;;;4.10;2.15;;;;;;;;;;5139273;27;20366;-85
2022/11/23 14:03:35;;;;;;;5.40;3.38;;;;;;;;;;5142286;27;20375;-84
2022/11/23 14:06:02;;;;;;;3.95;2.70;;;;;;;;;;5137916;27;20375;-85
2022/11/23 14:08:28;;;;;;;6.78;2.72;;;;;;;;;;5119337;27;20867;-85
2022/11/23 14:10:55;;;;;;;3.60;2.37;;;;;;;;;;5137819;27;20425;-85
2022/11/23 14:13:24;;;;;;;3.72;2.30;;;;;;;;;;5138183;27;20390;-84
2022/11/23 14:15:57;;;;;;;2.80;2.35;;;;;;;;;;5137790;27;20371;-85
2022/11/23 14:18:24;;;;;;;5.05;2.65;;;;;;;;;;5138112;27;20367;-85
2022/11/23 14:20:56;;;;;;;3.92;2.25;;;;;;;;;;5119085;27;20751;-84
2022/11/23 14:23:31;;;;;;;3.73;2.40;;;;;;;;;;5137391;27;20413;-85
2022/11/23 14:25:57;;;;;;;2.97;2.08;;;;;;;;;;5137195;27;20374;-84
2022/11/23 14:28:47;;;;;;;4.07;2.25;;;;;;;;;;5137202;27;20381;-85
2022/11/23 14:31:14;;;;;;;3.90;2.45;;;;;;;;;;5136949;27;20378;-84
2022/11/23 14:34:00;;;;;;;6.65;3.47;;;;;;;;;;5136898;27;20907;-85
2022/11/23 14:36:45;;;;;;;3.27;2.27;;;;;;;;;;5118940;27;20415;-85
2022/11/23 14:39:17;;;;;;;3.25;2.40;;;;;;;;;;5136828;27;20375;-85
2022/11/23 14:41:43;;;;;;;3.60;2.10;;;;;;;;;;5139145;27;20439;-84
2022/11/23 14:44:13;;;;;;;4.50;2.30;;;;;;;;;;5136595;27;20379;-85
2022/11/23 14:46:58;;;;;;;5.10;2.17;;;;;;;;;;5136496;27;20470;-84
2022/11/23 14:49:24;;;;;;;4.60;1.70;;;;;;;;;;5136629;27;20470;-84
2022/11/23 14:51:50;;;;;;;4.13;1.95;;;;;;;;;;5136449;27;20799;-85
2022/11/23 14:54:16;;;;;;;3.42;1.75;;;;;;;;;;5109034;27;20963;-85